Pagrindinis puslapis
METAR-TAF:

METAR-TAF

Oro uostai :

Reštas, Iranas

platuma: 37-12N, ilguma: 049-38E, Aukštis: -7 m

Dabartinis oras

Ataskaita buvo paskelbta 23 minutes, ne 08:00 UTC
Ramus vėjas
Temperatūra 23°C
Drėgmė 65%
Slėgis 1019 hPa
Matomumas 10 km arba daugiau
Mažai debesys ne aukštis 2000 ft
Išsisklaidę debesys ne aukštis 7000 ft

METAR: OIGG 180800Z 00000KT 9999 FEW020 SCT070 23/16 Q1019

Laikas: 11:53 (08:23 UTC)


TAF: trūkstamas

Orai ataskaitas ir orų prognozės (METAR, TAF).

turimą stotys yra geltonos ir raudonos taškus žemėlapyje.

Perkelti pele per norėdami pamatyti stoties vardą.

Tada spustelėkite, norėdami matyti oro stebėjimo ir prognozės.

Norėdami pakeisti žemėlapį: spustelėkite ant žalios mygtukų su juodo kryžiaus žemyn,; žalią mygtuką su brūkšneliu, jei norite nutolinti; arba žalių rodyklių gretimoms žemėlapius.


METAR-TAF: